sensor_id;sensor_type;location;lat;lon;timestamp;P1;durP1;ratioP1;P2;durP2;ratioP2
36253;SDS011;22291;52.250;21.228;2022-12-07T00:01:39;31.90;;;20.12;;
36253;SDS011;22291;52.250;21.228;2022-12-07T00:04:13;35.90;;;20.88;;
36253;SDS011;22291;52.250;21.228;2022-12-07T00:06:44;33.18;;;21.27;;
36253;SDS011;22291;52.250;21.228;2022-12-07T00:09:16;36.58;;;22.22;;
36253;SDS011;22291;52.250;21.228;2022-12-07T00:11:43;37.10;;;20.92;;
36253;SDS011;22291;52.250;21.228;2022-12-07T00:14:17;37.85;;;22.17;;
36253;SDS011;22291;52.250;21.228;2022-12-07T00:16:45;42.43;;;24.82;;
36253;SDS011;22291;52.250;21.228;2022-12-07T00:19:14;35.48;;;21.60;;
36253;SDS011;22291;52.250;21.228;2022-12-07T00:21:40;39.33;;;22.37;;
36253;SDS011;22291;52.250;21.228;2022-12-07T00:24:09;41.73;;;23.18;;
36253;SDS011;22291;52.250;21.228;2022-12-07T00:26:38;41.45;;;24.82;;
36253;SDS011;22291;52.250;21.228;2022-12-07T00:29:18;42.73;;;23.47;;
36253;SDS011;22291;52.250;21.228;2022-12-07T00:31:49;41.28;;;22.52;;
36253;SDS011;22291;52.250;21.228;2022-12-07T00:34:19;45.60;;;24.60;;
36253;SDS011;22291;52.250;21.228;2022-12-07T00:36:47;49.00;;;26.35;;
36253;SDS011;22291;52.250;21.228;2022-12-07T00:39:15;48.08;;;27.60;;
36253;SDS011;22291;52.250;21.228;2022-12-07T00:41:42;52.80;;;27.25;;
36253;SDS011;22291;52.250;21.228;2022-12-07T00:44:09;55.33;;;27.58;;
36253;SDS011;22291;52.250;21.228;2022-12-07T00:46:35;48.63;;;27.48;;
36253;SDS011;22291;52.250;21.228;2022-12-07T00:49:02;47.93;;;26.35;;
36253;SDS011;22291;52.250;21.228;2022-12-07T00:51:29;56.70;;;27.90;;
36253;SDS011;22291;52.250;21.228;2022-12-07T00:53:55;51.83;;;26.55;;
36253;SDS011;22291;52.250;21.228;2022-12-07T00:56:25;47.88;;;27.90;;
36253;SDS011;22291;52.250;21.228;2022-12-07T00:58:55;48.17;;;26.45;;
36253;SDS011;22291;52.250;21.228;2022-12-07T01:01:26;48.83;;;27.25;;
36253;SDS011;22291;52.250;21.228;2022-12-07T01:03:57;50.78;;;27.48;;
36253;SDS011;22291;52.250;21.228;2022-12-07T01:06:26;42.25;;;25.02;;
36253;SDS011;22291;52.250;21.228;2022-12-07T01:08:55;49.50;;;25.75;;
36253;SDS011;22291;52.250;21.228;2022-12-07T01:11:23;45.75;;;26.37;;
36253;SDS011;22291;52.250;21.228;2022-12-07T01:13:54;48.63;;;26.62;;
36253;SDS011;22291;52.250;21.228;2022-12-07T01:16:25;51.18;;;27.35;;
36253;SDS011;22291;52.250;21.228;2022-12-07T01:18:54;48.25;;;26.35;;
36253;SDS011;22291;52.250;21.228;2022-12-07T01:21:27;44.98;;;25.23;;
36253;SDS011;22291;52.250;21.228;2022-12-07T01:24:05;43.20;;;25.08;;
36253;SDS011;22291;52.250;21.228;2022-12-07T01:26:35;45.20;;;24.52;;
36253;SDS011;22291;52.250;21.228;2022-12-07T01:29:01;50.10;;;25.37;;
36253;SDS011;22291;52.250;21.228;2022-12-07T01:31:29;46.95;;;25.55;;
36253;SDS011;22291;52.250;21.228;2022-12-07T01:33:56;48.73;;;26.52;;
36253;SDS011;22291;52.250;21.228;2022-12-07T01:36:31;47.35;;;26.07;;
36253;SDS011;22291;52.250;21.228;2022-12-07T01:38:59;48.80;;;25.70;;
36253;SDS011;22291;52.250;21.228;2022-12-07T01:41:30;41.42;;;24.30;;
36253;SDS011;22291;52.250;21.228;2022-12-07T01:46:49;49.18;;;27.05;;
36253;SDS011;22291;52.250;21.228;2022-12-07T01:49:39;46.80;;;26.10;;
36253;SDS011;22291;52.250;21.228;2022-12-07T01:54:56;51.58;;;27.67;;
36253;SDS011;22291;52.250;21.228;2022-12-07T01:57:27;52.40;;;27.75;;
36253;SDS011;22291;52.250;21.228;2022-12-07T02:02:27;47.55;;;25.68;;
36253;SDS011;22291;52.250;21.228;2022-12-07T02:05:05;47.88;;;26.23;;
36253;SDS011;22291;52.250;21.228;2022-12-07T02:07:34;46.05;;;27.85;;
36253;SDS011;22291;52.250;21.228;2022-12-07T02:10:27;48.90;;;27.02;;
36253;SDS011;22291;52.250;21.228;2022-12-07T02:12:46;52.40;;;30.12;;
36253;SDS011;22291;52.250;21.228;2022-12-07T02:15:34;51.40;;;29.65;;
36253;SDS011;22291;52.250;21.228;2022-12-07T02:18:19;49.00;;;27.37;;
36253;SDS011;22291;52.250;21.228;2022-12-07T02:20:56;50.38;;;27.15;;
36253;SDS011;22291;52.250;21.228;2022-12-07T02:35:03;48.68;;;26.05;;
36253;SDS011;22291;52.250;21.228;2022-12-07T02:37:35;51.15;;;28.05;;
36253;SDS011;22291;52.250;21.228;2022-12-07T02:40:09;53.10;;;28.45;;
36253;SDS011;22291;52.250;21.228;2022-12-07T02:42:53;49.50;;;27.60;;
36253;SDS011;22291;52.250;21.228;2022-12-07T02:45:27;47.90;;;26.68;;
36253;SDS011;22291;52.250;21.228;2022-12-07T02:47:58;52.10;;;28.10;;
36253;SDS011;22291;52.250;21.228;2022-12-07T02:50:27;52.08;;;28.45;;
36253;SDS011;22291;52.250;21.228;2022-12-07T02:52:55;45.38;;;25.50;;
36253;SDS011;22291;52.250;21.228;2022-12-07T02:55:24;47.15;;;26.05;;
36253;SDS011;22291;52.250;21.228;2022-12-07T03:00:38;39.55;;;23.40;;
36253;SDS011;22291;52.250;21.228;2022-12-07T03:03:24;39.05;;;23.12;;
36253;SDS011;22291;52.250;21.228;2022-12-07T03:05:54;43.80;;;24.32;;
36253;SDS011;22291;52.250;21.228;2022-12-07T03:08:50;39.45;;;23.07;;
36253;SDS011;22291;52.250;21.228;2022-12-07T03:11:50;44.13;;;23.25;;
36253;SDS011;22291;52.250;21.228;2022-12-07T03:14:24;42.45;;;22.87;;
36253;SDS011;22291;52.250;21.228;2022-12-07T03:17:00;38.78;;;23.00;;
36253;SDS011;22291;52.250;21.228;2022-12-07T03:19:30;37.15;;;21.42;;
36253;SDS011;22291;52.250;21.228;2022-12-07T03:22:00;34.63;;;20.52;;
36253;SDS011;22291;52.250;21.228;2022-12-07T03:25:06;29.87;;;17.95;;
36253;SDS011;22291;52.250;21.228;2022-12-07T03:27:28;34.90;;;20.20;;
36253;SDS011;22291;52.250;21.228;2022-12-07T03:30:07;29.85;;;19.15;;
36253;SDS011;22291;52.250;21.228;2022-12-07T03:35:39;24.18;;;14.78;;
36253;SDS011;22291;52.250;21.228;2022-12-07T03:38:48;19.80;;;12.33;;
36253;SDS011;22291;52.250;21.228;2022-12-07T03:41:21;19.02;;;12.45;;
36253;SDS011;22291;52.250;21.228;2022-12-07T03:43:55;20.25;;;12.33;;
36253;SDS011;22291;52.250;21.228;2022-12-07T03:49:23;19.02;;;11.65;;
36253;SDS011;22291;52.250;21.228;2022-12-07T03:54:58;17.32;;;11.93;;
36253;SDS011;22291;52.250;21.228;2022-12-07T03:57:37;19.42;;;11.60;;
36253;SDS011;22291;52.250;21.228;2022-12-07T04:00:08;17.80;;;11.45;;
36253;SDS011;22291;52.250;21.228;2022-12-07T04:02:37;15.50;;;10.98;;
36253;SDS011;22291;52.250;21.228;2022-12-07T04:05:05;16.42;;;10.63;;
36253;SDS011;22291;52.250;21.228;2022-12-07T04:07:33;19.50;;;11.85;;
36253;SDS011;22291;52.250;21.228;2022-12-07T04:09:59;14.65;;;10.35;;
36253;SDS011;22291;52.250;21.228;2022-12-07T04:12:25;17.23;;;11.53;;
36253;SDS011;22291;52.250;21.228;2022-12-07T04:14:52;19.40;;;13.60;;
36253;SDS011;22291;52.250;21.228;2022-12-07T04:17:18;21.40;;;13.75;;
36253;SDS011;22291;52.250;21.228;2022-12-07T04:19:44;21.40;;;13.70;;
36253;SDS011;22291;52.250;21.228;2022-12-07T04:22:11;21.33;;;13.55;;
36253;SDS011;22291;52.250;21.228;2022-12-07T04:24:38;18.98;;;12.00;;
36253;SDS011;22291;52.250;21.228;2022-12-07T04:27:05;17.10;;;12.40;;
36253;SDS011;22291;52.250;21.228;2022-12-07T04:29:32;20.43;;;11.10;;
36253;SDS011;22291;52.250;21.228;2022-12-07T04:31:59;14.43;;;10.28;;
36253;SDS011;22291;52.250;21.228;2022-12-07T04:34:25;16.32;;;11.40;;
36253;SDS011;22291;52.250;21.228;2022-12-07T04:36:53;16.37;;;10.08;;
36253;SDS011;22291;52.250;21.228;2022-12-07T04:39:23;16.32;;;10.58;;
36253;SDS011;22291;52.250;21.228;2022-12-07T04:41:56;15.38;;;10.35;;
36253;SDS011;22291;52.250;21.228;2022-12-07T04:44:26;13.80;;;9.50;;
36253;SDS011;22291;52.250;21.228;2022-12-07T04:46:55;13.48;;;9.45;;
36253;SDS011;22291;52.250;21.228;2022-12-07T04:49:23;13.18;;;9.30;;
36253;SDS011;22291;52.250;21.228;2022-12-07T04:51:51;15.45;;;9.38;;
36253;SDS011;22291;52.250;21.228;2022-12-07T04:54:18;13.70;;;9.03;;
36253;SDS011;22291;52.250;21.228;2022-12-07T04:56:45;12.33;;;9.08;;
36253;SDS011;22291;52.250;21.228;2022-12-07T04:59:12;13.22;;;9.13;;
36253;SDS011;22291;52.250;21.228;2022-12-07T05:04:09;13.70;;;8.83;;
36253;SDS011;22291;52.250;21.228;2022-12-07T05:06:37;14.87;;;8.40;;
36253;SDS011;22291;52.250;21.228;2022-12-07T05:09:04;15.20;;;9.35;;
36253;SDS011;22291;52.250;21.228;2022-12-07T05:11:31;12.78;;;8.78;;
36253;SDS011;22291;52.250;21.228;2022-12-07T05:14:04;12.33;;;8.60;;
36253;SDS011;22291;52.250;21.228;2022-12-07T05:16:45;11.60;;;8.30;;
36253;SDS011;22291;52.250;21.228;2022-12-07T05:19:16;11.85;;;8.30;;
36253;SDS011;22291;52.250;21.228;2022-12-07T05:21:45;12.43;;;8.20;;
36253;SDS011;22291;52.250;21.228;2022-12-07T05:24:14;12.50;;;7.72;;
36253;SDS011;22291;52.250;21.228;2022-12-07T05:26:42;12.30;;;8.50;;
36253;SDS011;22291;52.250;21.228;2022-12-07T05:29:12;12.23;;;8.28;;
36253;SDS011;22291;52.250;21.228;2022-12-07T05:31:43;11.73;;;7.72;;
36253;SDS011;22291;52.250;21.228;2022-12-07T05:34:12;13.05;;;8.48;;
36253;SDS011;22291;52.250;21.228;2022-12-07T05:36:40;11.08;;;8.05;;
36253;SDS011;22291;52.250;21.228;2022-12-07T05:39:07;13.13;;;9.00;;
36253;SDS011;22291;52.250;21.228;2022-12-07T05:41:34;12.20;;;8.00;;
36253;SDS011;22291;52.250;21.228;2022-12-07T05:44:21;11.97;;;8.30;;
36253;SDS011;22291;52.250;21.228;2022-12-07T05:46:47;11.83;;;7.70;;
36253;SDS011;22291;52.250;21.228;2022-12-07T05:49:14;11.65;;;7.35;;
36253;SDS011;22291;52.250;21.228;2022-12-07T05:51:41;11.18;;;7.58;;
36253;SDS011;22291;52.250;21.228;2022-12-07T05:54:09;12.63;;;8.20;;
36253;SDS011;22291;52.250;21.228;2022-12-07T05:56:35;10.05;;;7.25;;
36253;SDS011;22291;52.250;21.228;2022-12-07T05:59:02;11.12;;;7.50;;
36253;SDS011;22291;52.250;21.228;2022-12-07T06:01:52;13.15;;;8.43;;
36253;SDS011;22291;52.250;21.228;2022-12-07T06:04:34;11.10;;;7.47;;
36253;SDS011;22291;52.250;21.228;2022-12-07T06:07:08;10.75;;;7.60;;
36253;SDS011;22291;52.250;21.228;2022-12-07T06:09:39;12.53;;;8.25;;
36253;SDS011;22291;52.250;21.228;2022-12-07T06:12:06;12.15;;;8.03;;
36253;SDS011;22291;52.250;21.228;2022-12-07T06:14:57;11.70;;;7.53;;
36253;SDS011;22291;52.250;21.228;2022-12-07T06:17:26;10.75;;;7.72;;
36253;SDS011;22291;52.250;21.228;2022-12-07T06:19:53;13.83;;;8.75;;
36253;SDS011;22291;52.250;21.228;2022-12-07T06:22:19;10.75;;;7.70;;
36253;SDS011;22291;52.250;21.228;2022-12-07T06:24:45;12.03;;;8.48;;
36253;SDS011;22291;52.250;21.228;2022-12-07T06:27:12;10.25;;;7.87;;
36253;SDS011;22291;52.250;21.228;2022-12-07T06:29:39;14.18;;;8.90;;
36253;SDS011;22291;52.250;21.228;2022-12-07T06:32:07;12.90;;;8.18;;
36253;SDS011;22291;52.250;21.228;2022-12-07T06:34:34;13.90;;;8.70;;
36253;SDS011;22291;52.250;21.228;2022-12-07T06:37:01;13.03;;;8.35;;
36253;SDS011;22291;52.250;21.228;2022-12-07T06:39:29;12.55;;;8.33;;
36253;SDS011;22291;52.250;21.228;2022-12-07T06:41:57;13.95;;;9.53;;
36253;SDS011;22291;52.250;21.228;2022-12-07T06:44:25;15.15;;;8.85;;
36253;SDS011;22291;52.250;21.228;2022-12-07T06:46:52;16.32;;;10.25;;
36253;SDS011;22291;52.250;21.228;2022-12-07T06:49:20;14.58;;;9.23;;
36253;SDS011;22291;52.250;21.228;2022-12-07T06:51:46;16.10;;;9.80;;
36253;SDS011;22291;52.250;21.228;2022-12-07T06:54:13;14.80;;;9.93;;
36253;SDS011;22291;52.250;21.228;2022-12-07T06:59:10;14.95;;;9.65;;
36253;SDS011;22291;52.250;21.228;2022-12-07T07:01:37;15.00;;;9.18;;
36253;SDS011;22291;52.250;21.228;2022-12-07T07:04:03;17.27;;;10.53;;
36253;SDS011;22291;52.250;21.228;2022-12-07T07:06:30;17.42;;;10.45;;
36253;SDS011;22291;52.250;21.228;2022-12-07T07:08:58;15.85;;;10.10;;
36253;SDS011;22291;52.250;21.228;2022-12-07T07:11:25;14.83;;;9.75;;
36253;SDS011;22291;52.250;21.228;2022-12-07T07:13:52;16.35;;;10.68;;
36253;SDS011;22291;52.250;21.228;2022-12-07T07:16:21;15.20;;;10.68;;
36253;SDS011;22291;52.250;21.228;2022-12-07T07:18:47;16.15;;;10.28;;
36253;SDS011;22291;52.250;21.228;2022-12-07T07:21:13;18.15;;;10.85;;
36253;SDS011;22291;52.250;21.228;2022-12-07T07:23:40;17.73;;;10.75;;
36253;SDS011;22291;52.250;21.228;2022-12-07T07:26:08;17.82;;;11.30;;
36253;SDS011;22291;52.250;21.228;2022-12-07T07:28:35;13.70;;;9.88;;
36253;SDS011;22291;52.250;21.228;2022-12-07T07:31:02;17.65;;;10.55;;
36253;SDS011;22291;52.250;21.228;2022-12-07T07:33:29;16.00;;;10.65;;
36253;SDS011;22291;52.250;21.228;2022-12-07T07:35:57;15.45;;;10.55;;
36253;SDS011;22291;52.250;21.228;2022-12-07T07:38:23;15.08;;;9.88;;
36253;SDS011;22291;52.250;21.228;2022-12-07T07:40:50;15.70;;;9.95;;
36253;SDS011;22291;52.250;21.228;2022-12-07T07:43:16;16.15;;;10.43;;
36253;SDS011;22291;52.250;21.228;2022-12-07T07:45:42;18.00;;;11.12;;
36253;SDS011;22291;52.250;21.228;2022-12-07T07:48:12;15.88;;;10.45;;
36253;SDS011;22291;52.250;21.228;2022-12-07T07:50:38;16.97;;;11.00;;
36253;SDS011;22291;52.250;21.228;2022-12-07T07:53:05;16.35;;;10.43;;
36253;SDS011;22291;52.250;21.228;2022-12-07T07:55:32;16.87;;;10.53;;
36253;SDS011;22291;52.250;21.228;2022-12-07T07:57:59;18.60;;;10.88;;
36253;SDS011;22291;52.250;21.228;2022-12-07T08:00:26;18.17;;;10.48;;
36253;SDS011;22291;52.250;21.228;2022-12-07T08:02:54;15.93;;;10.23;;
36253;SDS011;22291;52.250;21.228;2022-12-07T08:05:20;15.78;;;10.25;;
36253;SDS011;22291;52.250;21.228;2022-12-07T08:07:48;16.27;;;9.95;;
36253;SDS011;22291;52.250;21.228;2022-12-07T08:10:15;17.20;;;10.35;;
36253;SDS011;22291;52.250;21.228;2022-12-07T08:12:43;16.07;;;10.43;;
36253;SDS011;22291;52.250;21.228;2022-12-07T08:15:29;15.18;;;10.38;;
36253;SDS011;22291;52.250;21.228;2022-12-07T08:17:58;16.23;;;10.55;;
36253;SDS011;22291;52.250;21.228;2022-12-07T08:20:26;17.57;;;10.58;;
36253;SDS011;22291;52.250;21.228;2022-12-07T08:22:58;17.12;;;10.43;;
36253;SDS011;22291;52.250;21.228;2022-12-07T08:25:25;17.35;;;10.82;;
36253;SDS011;22291;52.250;21.228;2022-12-07T08:27:53;17.65;;;11.18;;
36253;SDS011;22291;52.250;21.228;2022-12-07T08:30:21;18.57;;;11.75;;
36253;SDS011;22291;52.250;21.228;2022-12-07T08:32:51;18.30;;;10.28;;
36253;SDS011;22291;52.250;21.228;2022-12-07T08:35:20;18.20;;;10.75;;
36253;SDS011;22291;52.250;21.228;2022-12-07T08:37:46;15.48;;;10.75;;
36253;SDS011;22291;52.250;21.228;2022-12-07T08:40:14;20.15;;;11.18;;
36253;SDS011;22291;52.250;21.228;2022-12-07T12:37:54;21.40;;;12.85;;
36253;SDS011;22291;52.250;21.228;2022-12-07T12:40:37;19.95;;;12.25;;
36253;SDS011;22291;52.250;21.228;2022-12-07T12:42:59;21.50;;;12.60;;
36253;SDS011;22291;52.250;21.228;2022-12-07T12:45:35;22.42;;;12.25;;
36253;SDS011;22291;52.250;21.228;2022-12-07T12:48:09;19.82;;;12.45;;
36253;SDS011;22291;52.250;21.228;2022-12-07T12:50:55;24.72;;;14.20;;
36253;SDS011;22291;52.250;21.228;2022-12-07T12:53:39;23.73;;;14.53;;
36253;SDS011;22291;52.250;21.228;2022-12-07T12:56:23;24.30;;;14.78;;
36253;SDS011;22291;52.250;21.228;2022-12-07T13:15:46;23.85;;;13.83;;
36253;SDS011;22291;52.250;21.228;2022-12-07T13:18:37;24.18;;;14.15;;
36253;SDS011;22291;52.250;21.228;2022-12-07T13:26:31;21.07;;;13.15;;
36253;SDS011;22291;52.250;21.228;2022-12-07T13:34:38;24.02;;;12.90;;
36253;SDS011;22291;52.250;21.228;2022-12-07T13:39:57;24.85;;;13.60;;
36253;SDS011;22291;52.250;21.228;2022-12-07T13:50:56;20.80;;;12.28;;
36253;SDS011;22291;52.250;21.228;2022-12-07T13:53:25;22.23;;;12.97;;
36253;SDS011;22291;52.250;21.228;2022-12-07T13:55:53;20.75;;;12.75;;
36253;SDS011;22291;52.250;21.228;2022-12-07T13:58:20;21.00;;;13.10;;
36253;SDS011;22291;52.250;21.228;2022-12-07T14:00:48;22.93;;;14.05;;
36253;SDS011;22291;52.250;21.228;2022-12-07T14:05:47;22.35;;;13.68;;
36253;SDS011;22291;52.250;21.228;2022-12-07T14:08:31;21.33;;;12.80;;
36253;SDS011;22291;52.250;21.228;2022-12-07T14:10:57;22.13;;;12.68;;
36253;SDS011;22291;52.250;21.228;2022-12-07T14:19:03;23.60;;;13.37;;
36253;SDS011;22291;52.250;21.228;2022-12-07T14:21:32;20.08;;;13.13;;
36253;SDS011;22291;52.250;21.228;2022-12-07T14:26:46;20.25;;;12.82;;
36253;SDS011;22291;52.250;21.228;2022-12-07T14:29:22;21.60;;;13.10;;
36253;SDS011;22291;52.250;21.228;2022-12-07T14:31:57;35.35;;;21.62;;
36253;SDS011;22291;52.250;21.228;2022-12-07T14:34:27;23.35;;;15.28;;
36253;SDS011;22291;52.250;21.228;2022-12-07T14:36:54;24.12;;;15.18;;
36253;SDS011;22291;52.250;21.228;2022-12-07T14:39:20;19.80;;;13.43;;
36253;SDS011;22291;52.250;21.228;2022-12-07T14:41:46;23.57;;;14.53;;
36253;SDS011;22291;52.250;21.228;2022-12-07T14:46:45;21.60;;;13.35;;
36253;SDS011;22291;52.250;21.228;2022-12-07T14:49:13;21.45;;;13.45;;
36253;SDS011;22291;52.250;21.228;2022-12-07T14:51:39;23.25;;;14.73;;
36253;SDS011;22291;52.250;21.228;2022-12-07T14:54:16;20.17;;;13.68;;
36253;SDS011;22291;52.250;21.228;2022-12-07T14:58:18;25.80;;;15.55;;
36253;SDS011;22291;52.250;21.228;2022-12-07T15:03:20;23.55;;;15.60;;
36253;SDS011;22291;52.250;21.228;2022-12-07T15:05:47;28.32;;;16.42;;
36253;SDS011;22291;52.250;21.228;2022-12-07T15:08:15;25.60;;;15.95;;
36253;SDS011;22291;52.250;21.228;2022-12-07T15:10:43;25.68;;;16.32;;
36253;SDS011;22291;52.250;21.228;2022-12-07T15:37:55;23.45;;;15.18;;
36253;SDS011;22291;52.250;21.228;2022-12-07T15:40:22;26.97;;;16.40;;
36253;SDS011;22291;52.250;21.228;2022-12-07T15:42:50;27.30;;;16.87;;
36253;SDS011;22291;52.250;21.228;2022-12-07T15:45:18;29.50;;;18.52;;
36253;SDS011;22291;52.250;21.228;2022-12-07T15:47:46;27.75;;;17.45;;
36253;SDS011;22291;52.250;21.228;2022-12-07T15:50:20;30.30;;;17.52;;
36253;SDS011;22291;52.250;21.228;2022-12-07T15:52:48;25.52;;;15.83;;
36253;SDS011;22291;52.250;21.228;2022-12-07T15:55:16;26.12;;;16.85;;
36253;SDS011;22291;52.250;21.228;2022-12-07T15:57:42;28.32;;;17.45;;
36253;SDS011;22291;52.250;21.228;2022-12-07T16:00:10;28.60;;;17.37;;
36253;SDS011;22291;52.250;21.228;2022-12-07T16:05:08;27.82;;;17.60;;
36253;SDS011;22291;52.250;21.228;2022-12-07T16:07:35;28.87;;;17.57;;
36253;SDS011;22291;52.250;21.228;2022-12-07T16:10:02;29.85;;;17.55;;
36253;SDS011;22291;52.250;21.228;2022-12-07T16:12:31;27.25;;;16.85;;
36253;SDS011;22291;52.250;21.228;2022-12-07T16:14:57;27.32;;;17.37;;
36253;SDS011;22291;52.250;21.228;2022-12-07T16:17:24;28.75;;;16.90;;
36253;SDS011;22291;52.250;21.228;2022-12-07T16:19:50;26.93;;;17.82;;
36253;SDS011;22291;52.250;21.228;2022-12-07T16:22:17;31.60;;;18.40;;
36253;SDS011;22291;52.250;21.228;2022-12-07T16:24:44;33.35;;;18.05;;
36253;SDS011;22291;52.250;21.228;2022-12-07T16:27:10;30.10;;;18.85;;
36253;SDS011;22291;52.250;21.228;2022-12-07T16:29:37;27.40;;;16.95;;
36253;SDS011;22291;52.250;21.228;2022-12-07T16:32:04;33.55;;;19.23;;
36253;SDS011;22291;52.250;21.228;2022-12-07T16:34:31;30.45;;;18.73;;
36253;SDS011;22291;52.250;21.228;2022-12-07T16:36:58;31.90;;;18.23;;
36253;SDS011;22291;52.250;21.228;2022-12-07T16:39:25;29.95;;;18.82;;
36253;SDS011;22291;52.250;21.228;2022-12-07T16:41:54;28.83;;;18.32;;
36253;SDS011;22291;52.250;21.228;2022-12-07T16:44:21;31.33;;;19.17;;
36253;SDS011;22291;52.250;21.228;2022-12-07T16:46:49;30.57;;;19.07;;
36253;SDS011;22291;52.250;21.228;2022-12-07T16:49:16;34.55;;;19.40;;
36253;SDS011;22291;52.250;21.228;2022-12-07T16:51:44;32.70;;;19.55;;
36253;SDS011;22291;52.250;21.228;2022-12-07T16:54:13;31.95;;;19.45;;
36253;SDS011;22291;52.250;21.228;2022-12-07T16:56:41;38.58;;;21.23;;
36253;SDS011;22291;52.250;21.228;2022-12-07T16:59:08;37.98;;;20.35;;
36253;SDS011;22291;52.250;21.228;2022-12-07T17:07:39;34.55;;;19.12;;
36253;SDS011;22291;52.250;21.228;2022-12-07T17:10:07;33.05;;;19.65;;
36253;SDS011;22291;52.250;21.228;2022-12-07T17:12:35;33.35;;;19.65;;
36253;SDS011;22291;52.250;21.228;2022-12-07T17:15:01;34.15;;;19.07;;
36253;SDS011;22291;52.250;21.228;2022-12-07T17:17:51;32.90;;;19.20;;
36253;SDS011;22291;52.250;21.228;2022-12-07T17:20:14;33.05;;;20.05;;
36253;SDS011;22291;52.250;21.228;2022-12-07T17:22:42;33.38;;;20.17;;
36253;SDS011;22291;52.250;21.228;2022-12-07T17:25:09;39.65;;;21.50;;
36253;SDS011;22291;52.250;21.228;2022-12-07T17:27:35;35.23;;;21.23;;
36253;SDS011;22291;52.250;21.228;2022-12-07T17:30:06;35.48;;;20.85;;
36253;SDS011;22291;52.250;21.228;2022-12-07T17:32:34;38.67;;;20.48;;
36253;SDS011;22291;52.250;21.228;2022-12-07T17:35:02;33.70;;;19.73;;
36253;SDS011;22291;52.250;21.228;2022-12-07T17:37:30;32.67;;;19.50;;
36253;SDS011;22291;52.250;21.228;2022-12-07T17:39:59;34.50;;;20.32;;
36253;SDS011;22291;52.250;21.228;2022-12-07T17:42:26;32.70;;;19.98;;
36253;SDS011;22291;52.250;21.228;2022-12-07T17:45:05;35.08;;;19.92;;
36253;SDS011;22291;52.250;21.228;2022-12-07T17:47:38;34.45;;;20.27;;
36253;SDS011;22291;52.250;21.228;2022-12-07T17:50:06;32.05;;;19.60;;
36253;SDS011;22291;52.250;21.228;2022-12-07T17:52:37;33.30;;;19.40;;
36253;SDS011;22291;52.250;21.228;2022-12-07T17:55:24;39.80;;;20.82;;
36253;SDS011;22291;52.250;21.228;2022-12-07T17:57:50;39.08;;;22.15;;
36253;SDS011;22291;52.250;21.228;2022-12-07T18:00:17;33.35;;;18.67;;
36253;SDS011;22291;52.250;21.228;2022-12-07T18:02:45;37.15;;;21.00;;
36253;SDS011;22291;52.250;21.228;2022-12-07T18:05:12;34.83;;;19.70;;
36253;SDS011;22291;52.250;21.228;2022-12-07T18:07:38;33.65;;;20.88;;
36253;SDS011;22291;52.250;21.228;2022-12-07T18:10:05;32.85;;;19.45;;
36253;SDS011;22291;52.250;21.228;2022-12-07T18:12:37;32.58;;;19.95;;
36253;SDS011;22291;52.250;21.228;2022-12-07T18:15:06;35.55;;;20.32;;
36253;SDS011;22291;52.250;21.228;2022-12-07T18:17:35;25.82;;;14.10;;
36253;SDS011;22291;52.250;21.228;2022-12-07T18:20:02;32.17;;;19.17;;
36253;SDS011;22291;52.250;21.228;2022-12-07T18:22:30;30.77;;;18.17;;
36253;SDS011;22291;52.250;21.228;2022-12-07T18:24:57;30.70;;;19.07;;
36253;SDS011;22291;52.250;21.228;2022-12-07T18:27:23;34.23;;;19.77;;
36253;SDS011;22291;52.250;21.228;2022-12-07T18:29:49;32.13;;;18.35;;
36253;SDS011;22291;52.250;21.228;2022-12-07T18:32:15;28.90;;;18.05;;
36253;SDS011;22291;52.250;21.228;2022-12-07T18:34:41;30.20;;;17.65;;
36253;SDS011;22291;52.250;21.228;2022-12-07T18:37:08;29.10;;;19.00;;
36253;SDS011;22291;52.250;21.228;2022-12-07T18:39:34;33.45;;;18.37;;
36253;SDS011;22291;52.250;21.228;2022-12-07T18:42:00;29.18;;;17.85;;
36253;SDS011;22291;52.250;21.228;2022-12-07T18:44:28;32.28;;;18.80;;
36253;SDS011;22291;52.250;21.228;2022-12-07T18:46:54;29.10;;;18.45;;
36253;SDS011;22291;52.250;21.228;2022-12-07T18:49:20;19.92;;;12.28;;
36253;SDS011;22291;52.250;21.228;2022-12-07T18:51:47;15.55;;;10.43;;
36253;SDS011;22291;52.250;21.228;2022-12-07T18:54:13;12.85;;;8.70;;
36253;SDS011;22291;52.250;21.228;2022-12-07T18:56:40;19.57;;;11.08;;
36253;SDS011;22291;52.250;21.228;2022-12-07T18:59:06;16.30;;;10.80;;
36253;SDS011;22291;52.250;21.228;2022-12-07T19:01:52;18.37;;;10.18;;
36253;SDS011;22291;52.250;21.228;2022-12-07T19:04:20;15.13;;;10.45;;
36253;SDS011;22291;52.250;21.228;2022-12-07T19:06:48;16.70;;;11.15;;
36253;SDS011;22291;52.250;21.228;2022-12-07T19:09:15;18.32;;;12.10;;
36253;SDS011;22291;52.250;21.228;2022-12-07T19:11:43;21.37;;;13.20;;
36253;SDS011;22291;52.250;21.228;2022-12-07T19:14:24;18.82;;;12.88;;
36253;SDS011;22291;52.250;21.228;2022-12-07T19:16:59;19.27;;;13.28;;
36253;SDS011;22291;52.250;21.228;2022-12-07T19:19:31;24.12;;;14.43;;
36253;SDS011;22291;52.250;21.228;2022-12-07T19:22:02;34.60;;;19.07;;
36253;SDS011;22291;52.250;21.228;2022-12-07T19:24:30;61.50;;;37.03;;
36253;SDS011;22291;52.250;21.228;2022-12-07T19:26:58;135.48;;;96.50;;
36253;SDS011;22291;52.250;21.228;2022-12-07T19:29:27;34.83;;;20.55;;
36253;SDS011;22291;52.250;21.228;2022-12-07T19:31:56;25.92;;;16.35;;
36253;SDS011;22291;52.250;21.228;2022-12-07T19:34:24;24.33;;;15.60;;
36253;SDS011;22291;52.250;21.228;2022-12-07T19:36:50;23.10;;;15.50;;
36253;SDS011;22291;52.250;21.228;2022-12-07T19:39:17;29.82;;;17.12;;
36253;SDS011;22291;52.250;21.228;2022-12-07T19:41:44;27.77;;;19.23;;
36253;SDS011;22291;52.250;21.228;2022-12-07T19:44:13;23.83;;;15.70;;
36253;SDS011;22291;52.250;21.228;2022-12-07T19:46:44;23.87;;;15.05;;
36253;SDS011;22291;52.250;21.228;2022-12-07T19:49:14;24.57;;;15.83;;
36253;SDS011;22291;52.250;21.228;2022-12-07T19:51:43;27.85;;;16.95;;
36253;SDS011;22291;52.250;21.228;2022-12-07T19:56:43;20.68;;;14.25;;
36253;SDS011;22291;52.250;21.228;2022-12-07T19:59:11;31.52;;;18.77;;
36253;SDS011;22291;52.250;21.228;2022-12-07T20:01:40;15.63;;;10.05;;
36253;SDS011;22291;52.250;21.228;2022-12-07T20:04:18;17.92;;;12.58;;
36253;SDS011;22291;52.250;21.228;2022-12-07T20:06:41;19.57;;;13.58;;
36253;SDS011;22291;52.250;21.228;2022-12-07T20:09:10;21.37;;;13.45;;
36253;SDS011;22291;52.250;21.228;2022-12-07T20:11:37;21.52;;;15.00;;
36253;SDS011;22291;52.250;21.228;2022-12-07T20:14:23;19.45;;;12.90;;
36253;SDS011;22291;52.250;21.228;2022-12-07T20:16:50;18.45;;;13.32;;
36253;SDS011;22291;52.250;21.228;2022-12-07T20:19:18;22.85;;;13.18;;
36253;SDS011;22291;52.250;21.228;2022-12-07T20:21:45;19.80;;;12.70;;
36253;SDS011;22291;52.250;21.228;2022-12-07T20:24:14;21.60;;;14.85;;
36253;SDS011;22291;52.250;21.228;2022-12-07T20:26:45;26.45;;;17.92;;
36253;SDS011;22291;52.250;21.228;2022-12-07T20:29:14;20.60;;;13.45;;
36253;SDS011;22291;52.250;21.228;2022-12-07T20:31:44;21.30;;;13.50;;